Time;durP1;ratioP1;P1;durP2;ratioP2;P2;SDS_P1;SDS_P2;PMS_P1;PMS_P2;Temp;Humidity;BMP_temperature;BMP_pressure;BME280_temperature;BME280_humidity;BME280_pressure;Samples;Min_cycle;Max_cycle;Signal;HPM_P1;HPM_P2
2022/08/28 00:02:11;;;;;;;8.82;2.10;;;;;;;;;;5098204;28;20044;-58
2022/08/28 00:04:38;;;;;;;7.80;1.67;;;;;;;;;;5081624;28;20071;-58
2022/08/28 00:07:04;;;;;;;8.43;3.05;;;;;;;;;;5079496;28;20087;-57
2022/08/28 00:09:30;;;;;;;8.63;2.30;;;;;;;;;;5082407;28;20044;-58
2022/08/28 00:11:56;;;;;;;4.82;2.33;;;;;;;;;;5082710;28;20043;-58
2022/08/28 00:14:23;;;;;;;6.60;2.97;;;;;;;;;;5082609;28;20056;-58
2022/08/28 00:16:50;;;;;;;5.60;2.88;;;;;;;;;;5082859;28;20040;-58
2022/08/28 00:19:17;;;;;;;11.90;2.92;;;;;;;;;;5082815;28;20658;-58
2022/08/28 00:21:44;;;;;;;7.55;2.88;;;;;;;;;;5082039;28;20059;-58
2022/08/28 00:24:10;;;;;;;9.63;2.83;;;;;;;;;;5081943;28;20043;-58
2022/08/28 00:29:21;;;;;;;8.25;3.10;;;;;;;;;;5081873;28;20397;-58
2022/08/28 00:31:47;;;;;;;9.30;2.55;;;;;;;;;;5096131;28;20193;-58
2022/08/28 00:34:14;;;;;;;8.05;2.53;;;;;;;;;;5081624;28;20134;-57
2022/08/28 00:36:40;;;;;;;4.18;2.38;;;;;;;;;;5097155;28;20044;-57
2022/08/28 00:39:07;;;;;;;5.10;1.30;;;;;;;;;;5081742;28;20047;-57
2022/08/28 00:41:34;;;;;;;3.38;1.63;;;;;;;;;;5082062;28;20040;-57
2022/08/28 00:44:13;;;;;;;3.97;1.63;;;;;;;;;;5081432;28;20044;-57
2022/08/28 00:46:41;;;;;;;9.07;2.58;;;;;;;;;;5079885;28;20581;-58
2022/08/28 00:49:07;;;;;;;4.18;2.42;;;;;;;;;;5066973;28;20047;-57
2022/08/28 00:54:20;;;;;;;4.45;1.92;;;;;;;;;;5078733;28;20044;-58
2022/08/28 00:56:46;;;;;;;3.08;1.80;;;;;;;;;;5082220;28;20040;-57
2022/08/28 00:59:14;;;;;;;5.60;1.90;;;;;;;;;;5081894;28;20040;-58
2022/08/28 01:01:42;;;;;;;5.85;2.08;;;;;;;;;;5081218;28;20051;-57
2022/08/28 01:04:09;;;;;;;3.33;1.60;;;;;;;;;;5081277;28;20482;-57
2022/08/28 01:06:35;;;;;;;3.50;1.15;;;;;;;;;;5097820;27;20048;-58
2022/08/28 01:11:39;;;;;;;6.93;1.77;;;;;;;;;;5036464;28;20049;-63
2022/08/28 01:14:07;;;;;;;3.60;1.30;;;;;;;;;;5041537;28;20060;-63
2022/08/28 01:16:34;;;;;;;5.85;1.85;;;;;;;;;;5041237;28;20712;-63
2022/08/28 01:19:00;;;;;;;6.53;1.50;;;;;;;;;;5046247;28;20509;-62
2022/08/28 01:21:28;;;;;;;4.65;1.50;;;;;;;;;;5044816;28;20497;-63
2022/08/28 01:23:57;;;;;;;2.97;1.40;;;;;;;;;;5046157;28;20513;-62
2022/08/28 01:26:24;;;;;;;5.05;1.85;;;;;;;;;;5044929;28;20394;-62
2022/08/28 01:28:51;;;;;;;4.75;2.17;;;;;;;;;;5045776;28;20044;-62
2022/08/28 01:31:17;;;;;;;4.55;1.75;;;;;;;;;;5046204;28;20049;-62
2022/08/28 01:33:44;;;;;;;5.60;1.92;;;;;;;;;;5045424;28;20041;-62
2022/08/28 01:36:11;;;;;;;6.97;2.00;;;;;;;;;;5044570;28;20551;-63
2022/08/28 01:38:38;;;;;;;4.68;1.50;;;;;;;;;;5045245;28;20052;-62
2022/08/28 01:41:04;;;;;;;7.05;2.22;;;;;;;;;;5045481;28;20040;-62
2022/08/28 01:43:30;;;;;;;7.78;1.95;;;;;;;;;;5044962;28;20041;-63
2022/08/28 01:46:00;;;;;;;4.38;1.70;;;;;;;;;;5045253;28;20041;-63
2022/08/28 01:48:27;;;;;;;7.55;2.63;;;;;;;;;;5044350;28;20041;-62
2022/08/28 01:50:54;;;;;;;7.55;2.08;;;;;;;;;;5044671;28;20049;-62
2022/08/28 01:53:22;;;;;;;6.03;2.20;;;;;;;;;;5044330;28;20572;-63
2022/08/28 01:55:48;;;;;;;4.05;2.10;;;;;;;;;;5045469;28;20410;-62
2022/08/28 01:58:15;;;;;;;5.43;1.60;;;;;;;;;;5045568;28;21918;-63
2022/08/28 02:00:41;;;;;;;7.10;2.42;;;;;;;;;;5044811;28;20140;-63
2022/08/28 02:03:08;;;;;;;7.22;2.20;;;;;;;;;;5042737;28;20794;-62
2022/08/28 02:05:35;;;;;;;6.22;1.92;;;;;;;;;;5043838;28;20716;-63
2022/08/28 02:08:02;;;;;;;4.55;2.10;;;;;;;;;;5060109;28;20060;-62
2022/08/28 02:10:30;;;;;;;8.23;1.88;;;;;;;;;;5044605;28;20180;-62
2022/08/28 02:12:56;;;;;;;5.63;1.92;;;;;;;;;;5044297;28;20057;-62
2022/08/28 02:15:24;;;;;;;4.22;1.20;;;;;;;;;;5044843;28;20040;-63
2022/08/28 02:17:50;;;;;;;3.15;1.60;;;;;;;;;;5044612;28;20043;-62
2022/08/28 02:20:16;;;;;;;4.68;2.55;;;;;;;;;;5042526;28;20045;-62
2022/08/28 02:22:43;;;;;;;5.22;2.03;;;;;;;;;;5044043;28;20029;-63
2022/08/28 02:25:10;;;;;;;4.90;2.00;;;;;;;;;;5042772;28;20286;-62
2022/08/28 02:27:37;;;;;;;6.57;2.38;;;;;;;;;;5044818;28;20049;-63
2022/08/28 02:30:04;;;;;;;5.45;1.50;;;;;;;;;;5043705;28;20090;-63
2022/08/28 02:32:30;;;;;;;6.67;1.93;;;;;;;;;;5044520;28;20068;-63
2022/08/28 02:34:57;;;;;;;9.85;1.88;;;;;;;;;;5044364;28;20091;-62
2022/08/28 02:37:23;;;;;;;4.32;1.67;;;;;;;;;;5059045;28;20048;-63
2022/08/28 02:39:50;;;;;;;2.55;1.70;;;;;;;;;;5044284;28;20037;-63
2022/08/28 02:42:16;;;;;;;7.68;2.65;;;;;;;;;;5044594;28;20462;-62
2022/08/28 02:44:42;;;;;;;3.25;1.55;;;;;;;;;;5043404;28;20045;-62
2022/08/28 02:47:08;;;;;;;3.85;1.67;;;;;;;;;;5044464;28;20033;-62
2022/08/28 02:49:34;;;;;;;5.00;1.02;;;;;;;;;;5043007;28;20107;-62
2022/08/28 02:52:01;;;;;;;3.13;1.05;;;;;;;;;;5043269;28;20037;-62
2022/08/28 02:54:27;;;;;;;3.97;1.33;;;;;;;;;;5044312;28;20080;-62
2022/08/28 02:56:54;;;;;;;2.50;1.20;;;;;;;;;;5044119;28;20040;-63
2022/08/28 02:59:21;;;;;;;5.90;2.10;;;;;;;;;;5043525;28;20061;-63
2022/08/28 03:01:47;;;;;;;3.55;1.50;;;;;;;;;;5044273;28;20474;-62
2022/08/28 03:04:13;;;;;;;5.10;1.60;;;;;;;;;;5043995;28;20041;-62
2022/08/28 03:06:39;;;;;;;4.20;1.90;;;;;;;;;;5042788;28;20084;-62
2022/08/28 03:09:05;;;;;;;8.30;2.25;;;;;;;;;;5043564;28;20033;-62
2022/08/28 03:11:32;;;;;;;11.38;3.08;;;;;;;;;;5043223;28;20513;-62
2022/08/28 03:14:00;;;;;;;8.40;2.90;;;;;;;;;;5043787;28;20036;-63
2022/08/28 03:16:26;;;;;;;5.33;2.43;;;;;;;;;;5043414;28;20041;-62
2022/08/28 03:18:52;;;;;;;6.30;1.75;;;;;;;;;;5043356;28;20040;-62
2022/08/28 03:21:18;;;;;;;4.03;2.55;;;;;;;;;;5041808;28;20048;-62
2022/08/28 03:23:46;;;;;;;4.70;2.03;;;;;;;;;;5059077;28;20048;-62
2022/08/28 03:26:14;;;;;;;7.68;2.00;;;;;;;;;;5043605;28;20041;-63
2022/08/28 03:28:40;;;;;;;;;;;;;;;;;;5043787;28;20033;-62
2022/08/28 03:31:07;;;;;;;3.85;1.65;;;;;;;;;;5058612;28;19921;-62
2022/08/28 03:33:34;;;;;;;5.10;1.58;;;;;;;;;;5043041;28;20040;-62
2022/08/28 03:36:00;;;;;;;10.05;1.80;;;;;;;;;;5024444;28;20049;-62
2022/08/28 03:38:26;;;;;;;5.95;2.13;;;;;;;;;;5043097;28;20033;-63
2022/08/28 03:40:53;;;;;;;3.85;1.85;;;;;;;;;;5041662;28;20063;-63
2022/08/28 03:43:20;;;;;;;4.80;2.20;;;;;;;;;;5042718;28;20437;-61
2022/08/28 03:45:50;;;;;;;7.43;2.00;;;;;;;;;;5041568;28;20048;-62
2022/08/28 03:48:18;;;;;;;4.47;2.10;;;;;;;;;;5042831;28;20141;-62
2022/08/28 03:50:44;;;;;;;4.65;1.88;;;;;;;;;;5042565;28;20037;-63
2022/08/28 03:53:11;;;;;;;6.18;2.30;;;;;;;;;;5043004;28;20708;-63
2022/08/28 03:55:39;;;;;;;10.77;2.33;;;;;;;;;;5040459;28;20080;-62
2022/08/28 03:58:05;;;;;;;15.55;2.25;;;;;;;;;;5042925;28;20052;-62
2022/08/28 04:00:31;;;;;;;4.93;1.75;;;;;;;;;;5042434;28;20081;-63
2022/08/28 04:02:57;;;;;;;7.75;1.70;;;;;;;;;;5042829;28;20112;-62
2022/08/28 04:05:23;;;;;;;4.45;1.35;;;;;;;;;;5039195;28;20068;-63
2022/08/28 04:07:52;;;;;;;3.35;1.67;;;;;;;;;;5042830;28;20047;-62
2022/08/28 04:10:18;;;;;;;8.65;1.85;;;;;;;;;;5042600;28;20131;-62
2022/08/28 04:12:45;;;;;;;7.15;2.22;;;;;;;;;;5041972;28;20045;-63
2022/08/28 04:15:11;;;;;;;6.75;2.15;;;;;;;;;;5041954;28;20120;-62
2022/08/28 04:17:38;;;;;;;9.63;2.35;;;;;;;;;;5041898;28;20033;-62
2022/08/28 04:20:05;;;;;;;8.95;2.58;;;;;;;;;;5041582;28;20036;-63
2022/08/28 04:22:31;;;;;;;6.47;1.83;;;;;;;;;;5042220;28;20033;-62
2022/08/28 04:24:58;;;;;;;4.75;1.60;;;;;;;;;;5042383;28;20099;-63
2022/08/28 04:27:24;;;;;;;2.92;1.10;;;;;;;;;;5042155;28;20437;-63
2022/08/28 04:29:50;;;;;;;3.08;1.05;;;;;;;;;;5042573;28;20063;-63
2022/08/28 04:32:16;;;;;;;6.95;1.17;;;;;;;;;;5042723;28;20389;-62
2022/08/28 04:34:42;;;;;;;2.95;1.30;;;;;;;;;;5042068;28;20458;-63
2022/08/28 04:37:08;;;;;;;2.50;1.20;;;;;;;;;;5041246;28;20422;-63
2022/08/28 04:39:35;;;;;;;3.42;1.00;;;;;;;;;;5042297;28;20037;-62
2022/08/28 04:42:01;;;;;;;2.50;0.80;;;;;;;;;;5057493;28;20041;-63
2022/08/28 04:44:27;;;;;;;2.10;0.88;;;;;;;;;;5041347;28;20045;-63
2022/08/28 04:46:53;;;;;;;5.90;1.38;;;;;;;;;;5041626;28;20055;-63
2022/08/28 04:49:19;;;;;;;3.20;1.40;;;;;;;;;;5041910;28;20398;-63
2022/08/28 04:51:45;;;;;;;6.15;2.17;;;;;;;;;;5041470;28;20063;-63
2022/08/28 04:54:11;;;;;;;8.60;1.75;;;;;;;;;;5042036;28;20107;-63
2022/08/28 04:56:39;;;;;;;7.65;2.67;;;;;;;;;;5039381;28;20035;-63
2022/08/28 04:59:05;;;;;;;9.23;2.50;;;;;;;;;;5041805;28;20103;-63
2022/08/28 05:01:32;;;;;;;6.97;2.08;;;;;;;;;;5041535;28;20055;-63
2022/08/28 05:03:59;;;;;;;10.90;2.25;;;;;;;;;;5042210;28;20098;-63
2022/08/28 05:06:27;;;;;;;4.55;1.55;;;;;;;;;;5040984;28;20079;-63
2022/08/28 05:08:54;;;;;;;5.05;1.88;;;;;;;;;;5042016;28;20060;-63
2022/08/28 05:11:21;;;;;;;3.67;1.98;;;;;;;;;;5041123;28;20045;-63
2022/08/28 05:13:48;;;;;;;7.90;2.80;;;;;;;;;;5041939;28;20049;-63
2022/08/28 05:16:15;;;;;;;7.57;1.85;;;;;;;;;;5042006;28;20048;-63
2022/08/28 05:18:42;;;;;;;5.18;2.25;;;;;;;;;;5041026;28;20195;-63
2022/08/28 05:21:14;;;;;;;5.00;2.30;;;;;;;;;;5040837;28;20029;-62
2022/08/28 05:23:41;;;;;;;3.63;1.63;;;;;;;;;;5041520;28;20044;-63
2022/08/28 05:26:11;;;;;;;3.65;1.70;;;;;;;;;;5039185;28;20541;-63
2022/08/28 05:28:37;;;;;;;4.35;2.25;;;;;;;;;;5041192;28;20079;-62
2022/08/28 05:31:08;;;;;;;7.60;2.70;;;;;;;;;;5055846;28;20057;-62
2022/08/28 05:33:34;;;;;;;4.47;2.20;;;;;;;;;;5041302;28;20048;-63
2022/08/28 05:36:03;;;;;;;5.72;2.33;;;;;;;;;;5040595;28;20041;-63
2022/08/28 05:38:29;;;;;;;8.13;2.70;;;;;;;;;;5041270;28;20544;-63
2022/08/28 05:40:55;;;;;;;7.35;2.72;;;;;;;;;;5041409;28;20039;-63
2022/08/28 05:43:21;;;;;;;6.60;2.30;;;;;;;;;;5040706;28;20796;-63
2022/08/28 05:45:56;;;;;;;5.78;2.38;;;;;;;;;;5041956;28;20045;-63
2022/08/28 05:48:23;;;;;;;8.60;2.38;;;;;;;;;;5041496;28;20425;-63
2022/08/28 05:50:49;;;;;;;5.05;1.92;;;;;;;;;;5041031;28;20099;-61
2022/08/28 05:53:16;;;;;;;8.25;2.50;;;;;;;;;;5041895;28;20067;-62
2022/08/28 05:55:42;;;;;;;6.30;2.03;;;;;;;;;;5041406;28;20041;-63
2022/08/28 06:00:54;;;;;;;12.45;2.20;;;;;;;;;;5040999;28;20556;-63
2022/08/28 06:03:21;;;;;;;7.10;2.25;;;;;;;;;;5041114;28;20068;-63
2022/08/28 06:05:54;;;;;;;8.02;2.25;;;;;;;;;;5041881;28;20067;-63
2022/08/28 06:08:21;;;;;;;8.75;1.98;;;;;;;;;;5046388;28;20032;-63
2022/08/28 06:10:49;;;;;;;13.38;2.50;;;;;;;;;;5044118;28;20137;-63
2022/08/28 06:13:15;;;;;;;11.70;2.33;;;;;;;;;;5044429;28;20041;-63
2022/08/28 06:15:42;;;;;;;6.30;2.28;;;;;;;;;;5043753;28;20413;-62
2022/08/28 06:18:08;;;;;;;10.00;2.10;;;;;;;;;;5043216;28;20041;-62
2022/08/28 06:20:40;;;;;;;10.00;2.63;;;;;;;;;;5042357;28;20112;-63
2022/08/28 06:23:06;;;;;;;6.68;2.03;;;;;;;;;;5043298;28;20449;-63
2022/08/28 06:25:36;;;;;;;8.48;1.58;;;;;;;;;;5045593;28;20048;-63
2022/08/28 06:28:03;;;;;;;10.70;2.13;;;;;;;;;;5043190;28;20049;-62
2022/08/28 06:30:29;;;;;;;5.53;1.58;;;;;;;;;;5043585;28;20045;-63
2022/08/28 06:32:56;;;;;;;7.93;1.60;;;;;;;;;;5043496;28;20124;-63
2022/08/28 06:35:22;;;;;;;12.23;2.22;;;;;;;;;;5041411;28;20037;-63
2022/08/28 06:37:49;;;;;;;5.53;1.80;;;;;;;;;;5043612;28;20056;-60
2022/08/28 06:40:15;;;;;;;5.75;1.30;;;;;;;;;;5042842;28;20386;-63
2022/08/28 06:42:41;;;;;;;4.85;1.75;;;;;;;;;;5041073;28;20037;-63
2022/08/28 06:45:07;;;;;;;6.78;1.52;;;;;;;;;;5041594;28;20063;-63
2022/08/28 06:47:33;;;;;;;9.32;1.60;;;;;;;;;;5042200;28;20040;-63
2022/08/28 06:49:59;;;;;;;10.55;1.60;;;;;;;;;;5042803;28;20041;-63
2022/08/28 06:52:26;;;;;;;15.23;1.83;;;;;;;;;;5031158;28;20047;-62
2022/08/28 06:54:52;;;;;;;10.32;1.58;;;;;;;;;;5042969;28;20067;-64
2022/08/28 06:57:18;;;;;;;8.10;1.48;;;;;;;;;;5030775;28;20424;-63
2022/08/28 06:59:44;;;;;;;8.38;1.35;;;;;;;;;;5042286;28;20041;-63
2022/08/28 07:02:10;;;;;;;11.43;1.52;;;;;;;;;;5040245;28;20049;-63
2022/08/28 07:04:36;;;;;;;13.77;1.60;;;;;;;;;;5041751;28;20052;-63
2022/08/28 07:07:03;;;;;;;10.82;2.47;;;;;;;;;;5043499;28;20049;-63
2022/08/28 07:09:29;;;;;;;9.27;1.58;;;;;;;;;;5042919;28;20037;-63
2022/08/28 07:11:55;;;;;;;11.57;1.45;;;;;;;;;;5041743;28;20041;-63
2022/08/28 07:14:22;;;;;;;6.22;1.63;;;;;;;;;;5042556;28;20692;-63
2022/08/28 07:16:48;;;;;;;8.40;1.20;;;;;;;;;;5043382;28;20041;-63
2022/08/28 07:19:15;;;;;;;9.75;1.30;;;;;;;;;;5042895;28;20326;-63
2022/08/28 07:21:42;;;;;;;7.38;1.25;;;;;;;;;;5032393;28;20487;-63
2022/08/28 07:24:10;;;;;;;6.53;1.25;;;;;;;;;;5037166;28;20041;-63
2022/08/28 07:26:36;;;;;;;9.00;1.20;;;;;;;;;;5037518;28;20088;-63
2022/08/28 07:29:06;;;;;;;6.63;1.35;;;;;;;;;;5037421;28;20128;-62
2022/08/28 07:31:32;;;;;;;9.88;1.30;;;;;;;;;;5040467;28;20461;-63
2022/08/28 07:33:59;;;;;;;4.38;1.02;;;;;;;;;;5040392;28;20033;-63
2022/08/28 07:36:27;;;;;;;7.05;1.00;;;;;;;;;;5038735;28;20133;-63
2022/08/28 07:38:55;;;;;;;8.73;1.10;;;;;;;;;;5035218;28;20060;-63
2022/08/28 07:41:24;;;;;;;5.60;0.98;;;;;;;;;;5037019;28;20076;-63
2022/08/28 07:46:36;;;;;;;9.10;1.08;;;;;;;;;;5040480;28;20049;-62
2022/08/28 07:49:03;;;;;;;4.40;1.05;;;;;;;;;;5037939;28;20651;-62
2022/08/28 07:51:29;;;;;;;6.28;1.08;;;;;;;;;;5041362;28;20106;-63
2022/08/28 07:53:56;;;;;;;8.13;0.90;;;;;;;;;;5033098;28;20186;-63
2022/08/28 07:56:23;;;;;;;8.15;1.67;;;;;;;;;;5036861;28;20714;-62
2022/08/28 07:58:50;;;;;;;5.05;1.45;;;;;;;;;;5037652;28;20614;-63
2022/08/28 08:01:16;;;;;;;6.78;1.23;;;;;;;;;;5040359;28;20040;-63
2022/08/28 08:03:43;;;;;;;5.78;0.95;;;;;;;;;;5028587;28;20073;-63
2022/08/28 08:06:12;;;;;;;8.98;0.90;;;;;;;;;;5058224;28;20114;-62
2022/08/28 08:08:39;;;;;;;5.03;0.90;;;;;;;;;;5039658;28;20442;-63
2022/08/28 08:11:07;;;;;;;7.28;0.93;;;;;;;;;;5032646;28;20044;-65
2022/08/28 08:13:34;;;;;;;9.98;1.17;;;;;;;;;;5034230;28;20045;-61
2022/08/28 08:16:05;;;;;;;6.82;1.13;;;;;;;;;;5040651;28;20116;-61
2022/08/28 08:18:32;;;;;;;8.05;1.13;;;;;;;;;;5039580;28;20048;-61
2022/08/28 08:20:59;;;;;;;6.78;0.90;;;;;;;;;;5035770;28;20124;-61
2022/08/28 08:23:25;;;;;;;6.90;1.15;;;;;;;;;;5034446;28;20127;-62
2022/08/28 08:25:54;;;;;;;6.20;0.98;;;;;;;;;;5035378;28;20049;-62
2022/08/28 08:28:20;;;;;;;4.35;1.27;;;;;;;;;;5034353;28;20051;-64
2022/08/28 08:30:47;;;;;;;12.95;1.33;;;;;;;;;;5038183;28;20136;-61
2022/08/28 08:33:13;;;;;;;10.93;1.27;;;;;;;;;;5039665;28;20810;-61
2022/08/28 08:35:39;;;;;;;3.72;0.85;;;;;;;;;;5035598;28;20256;-61
2022/08/28 08:38:06;;;;;;;4.38;0.90;;;;;;;;;;5037060;28;20145;-61
2022/08/28 08:40:34;;;;;;;4.88;0.90;;;;;;;;;;5033758;28;20055;-61
2022/08/28 08:43:01;;;;;;;5.80;1.70;;;;;;;;;;5026697;28;20061;-62
2022/08/28 08:45:29;;;;;;;7.80;0.93;;;;;;;;;;5039105;28;20171;-62
2022/08/28 08:47:57;;;;;;;7.43;1.20;;;;;;;;;;5040739;28;20044;-62
2022/08/28 08:50:25;;;;;;;7.82;1.23;;;;;;;;;;5040896;28;20068;-62
2022/08/28 08:53:14;;;;;;;4.70;0.70;;;;;;;;;;5039935;28;20470;-64
2022/08/28 08:55:49;;;;;;;7.65;0.82;;;;;;;;;;5033139;28;20584;-63
2022/08/28 08:58:24;;;;;;;6.22;1.10;;;;;;;;;;5041131;28;20063;-63
2022/08/28 09:00:51;;;;;;;4.70;1.00;;;;;;;;;;5041351;28;20052;-64
2022/08/28 09:03:24;;;;;;;8.07;1.02;;;;;;;;;;5042311;28;20048;-63
2022/08/28 09:05:53;;;;;;;5.07;1.05;;;;;;;;;;5039286;28;20705;-64
2022/08/28 09:08:25;;;;;;;5.35;1.25;;;;;;;;;;5040951;28;20044;-64
2022/08/28 09:10:54;;;;;;;4.63;1.13;;;;;;;;;;5026201;28;20118;-63
2022/08/28 09:13:25;;;;;;;9.45;1.35;;;;;;;;;;5041807;28;20521;-64
2022/08/28 09:15:51;;;;;;;19.85;1.33;;;;;;;;;;5042320;28;20133;-64
2022/08/28 09:18:21;;;;;;;16.58;1.25;;;;;;;;;;5042631;28;20395;-63
2022/08/28 09:20:55;;;;;;;5.82;1.10;;;;;;;;;;5041650;28;20044;-63
2022/08/28 09:23:22;;;;;;;8.05;1.02;;;;;;;;;;5038637;28;20033;-64
2022/08/28 09:25:51;;;;;;;7.35;1.42;;;;;;;;;;5041903;28;20521;-63
2022/08/28 09:28:21;;;;;;;11.77;1.27;;;;;;;;;;5041039;28;20037;-63
2022/08/28 09:30:56;;;;;;;11.48;1.20;;;;;;;;;;5042447;28;20056;-63
2022/08/28 09:33:28;;;;;;;10.32;1.77;;;;;;;;;;5041925;28;20056;-63
2022/08/28 09:35:54;;;;;;;8.43;1.25;;;;;;;;;;5040805;28;20056;-63
2022/08/28 09:38:22;;;;;;;8.63;1.23;;;;;;;;;;5042941;28;20123;-63
2022/08/28 09:43:34;;;;;;;4.68;0.88;;;;;;;;;;5045074;28;20380;-63
2022/08/28 09:46:04;;;;;;;4.85;1.48;;;;;;;;;;5045470;28;20040;-63
2022/08/28 09:48:35;;;;;;;11.35;1.58;;;;;;;;;;5045272;28;20512;-63
2022/08/28 09:51:03;;;;;;;4.10;1.10;;;;;;;;;;5044442;28;20049;-63
2022/08/28 09:53:31;;;;;;;5.40;0.95;;;;;;;;;;5045455;28;20041;-61
2022/08/28 09:56:10;;;;;;;7.88;1.05;;;;;;;;;;5045777;28;20045;-63
2022/08/28 09:58:40;;;;;;;3.92;1.17;;;;;;;;;;5041118;28;20106;-63
2022/08/28 10:01:15;;;;;;;3.80;0.90;;;;;;;;;;5039135;28;20048;-63
2022/08/28 10:03:51;;;;;;;4.35;1.05;;;;;;;;;;5042563;28;20040;-63
2022/08/28 10:06:21;;;;;;;7.95;1.00;;;;;;;;;;5042527;28;20048;-64
2022/08/28 10:08:53;;;;;;;4.78;0.75;;;;;;;;;;5043088;28;20077;-64
2022/08/28 10:11:35;;;;;;;6.25;1.25;;;;;;;;;;5038683;28;20110;-63
2022/08/28 10:14:09;;;;;;;6.45;1.35;;;;;;;;;;5042538;28;20494;-62
2022/08/28 10:16:43;;;;;;;7.68;1.13;;;;;;;;;;5055317;28;20067;-63
2022/08/28 10:19:18;;;;;;;7.22;1.05;;;;;;;;;;5023558;28;20091;-63
2022/08/28 10:21:48;;;;;;;7.43;1.42;;;;;;;;;;5040348;28;20744;-63
2022/08/28 10:24:21;;;;;;;4.75;0.90;;;;;;;;;;5022001;28;20041;-62
2022/08/28 10:26:55;;;;;;;8.13;1.20;;;;;;;;;;5039372;28;20045;-63
2022/08/28 10:29:22;;;;;;;4.47;1.10;;;;;;;;;;5041544;28;20098;-63
2022/08/28 10:32:07;;;;;;;4.50;0.83;;;;;;;;;;5039352;28;20056;-62
2022/08/28 10:34:49;;;;;;;6.05;1.10;;;;;;;;;;5034404;28;20367;-60
2022/08/28 10:37:21;;;;;;;4.20;0.85;;;;;;;;;;5043226;28;20043;-59
2022/08/28 10:39:56;;;;;;;11.40;1.23;;;;;;;;;;5039634;28;20102;-59
2022/08/28 10:42:26;;;;;;;3.33;0.82;;;;;;;;;;5042287;28;20102;-60
2022/08/28 10:44:59;;;;;;;9.55;1.75;;;;;;;;;;5040150;28;20477;-60
2022/08/28 10:47:27;;;;;;;4.18;1.13;;;;;;;;;;5036332;28;20529;-59
2022/08/28 10:50:00;;;;;;;4.90;1.10;;;;;;;;;;5040039;28;20052;-60
2022/08/28 10:52:34;;;;;;;6.30;1.30;;;;;;;;;;5037840;28;20060;-60
2022/08/28 10:55:04;;;;;;;3.53;0.88;;;;;;;;;;5023158;28;20087;-60
2022/08/28 10:57:56;;;;;;;8.90;1.35;;;;;;;;;;5037725;28;20893;-59
2022/08/28 11:00:24;;;;;;;12.02;2.63;;;;;;;;;;5040862;28;20063;-60
2022/08/28 11:02:52;;;;;;;8.45;1.35;;;;;;;;;;5039127;28;20052;-60
2022/08/28 11:05:21;;;;;;;5.60;1.63;;;;;;;;;;5041722;28;20044;-60
2022/08/28 11:07:50;;;;;;;16.13;2.30;;;;;;;;;;5036628;28;20049;-60
2022/08/28 11:13:41;;;;;;;15.43;2.33;;;;;;;;;;5036845;28;20135;-60
2022/08/28 11:16:18;;;;;;;5.38;0.93;;;;;;;;;;5037961;28;20041;-60
2022/08/28 11:18:55;;;;;;;6.57;1.40;;;;;;;;;;5018234;28;20971;-60
2022/08/28 11:21:27;;;;;;;4.97;1.02;;;;;;;;;;5040756;28;20044;-60
2022/08/28 11:24:00;;;;;;;3.13;1.13;;;;;;;;;;5057327;28;20060;-59
2022/08/28 11:26:31;;;;;;;5.15;1.50;;;;;;;;;;5039075;28;20111;-59
2022/08/28 11:28:57;;;;;;;9.63;1.50;;;;;;;;;;5041252;28;20052;-60
2022/08/28 11:31:26;;;;;;;5.95;1.20;;;;;;;;;;5021762;28;20044;-60
2022/08/28 11:33:54;;;;;;;5.30;1.40;;;;;;;;;;5040622;28;20056;-59
2022/08/28 11:36:20;;;;;;;4.32;1.08;;;;;;;;;;5039499;28;20077;-60
2022/08/28 11:38:51;;;;;;;5.63;1.15;;;;;;;;;;5039481;28;20072;-59
2022/08/28 11:41:21;;;;;;;7.25;1.30;;;;;;;;;;5041584;28;20060;-59
2022/08/28 11:43:51;;;;;;;17.35;1.83;;;;;;;;;;5037988;28;20764;-59
2022/08/28 11:46:25;;;;;;;5.55;1.30;;;;;;;;;;5041012;28;20223;-58
2022/08/28 11:48:54;;;;;;;8.18;1.23;;;;;;;;;;5034156;28;20529;-60
2022/08/28 11:51:39;;;;;;;2.53;1.00;;;;;;;;;;5033464;28;20423;-61
2022/08/28 11:54:12;;;;;;;6.65;0.90;;;;;;;;;;5033007;28;20103;-59
2022/08/28 11:56:45;;;;;;;11.43;1.55;;;;;;;;;;5039819;28;20151;-59
2022/08/28 11:59:24;;;;;;;15.63;1.38;;;;;;;;;;5042780;28;20037;-60
2022/08/28 12:01:50;;;;;;;5.07;1.25;;;;;;;;;;5036052;28;20044;-59
2022/08/28 12:04:20;;;;;;;6.80;1.20;;;;;;;;;;5036799;28;20053;-59
2022/08/28 12:06:46;;;;;;;7.97;1.05;;;;;;;;;;5041300;28;20045;-59
2022/08/28 12:09:32;;;;;;;7.32;1.13;;;;;;;;;;5022711;28;20124;-59
2022/08/28 12:12:01;;;;;;;4.22;1.00;;;;;;;;;;5037452;28;20106;-59
2022/08/28 12:14:27;;;;;;;4.53;1.30;;;;;;;;;;5037732;28;20164;-59
2022/08/28 12:16:59;;;;;;;6.72;0.90;;;;;;;;;;5035330;28;20049;-59
2022/08/28 12:19:27;;;;;;;3.85;0.98;;;;;;;;;;5039425;28;20053;-59
2022/08/28 12:21:54;;;;;;;4.05;1.17;;;;;;;;;;5055854;28;20056;-59
2022/08/28 12:24:22;;;;;;;3.47;0.88;;;;;;;;;;5035011;28;20091;-59
2022/08/28 12:26:53;;;;;;;5.85;1.00;;;;;;;;;;5032840;28;20064;-59
2022/08/28 12:29:28;;;;;;;4.07;1.20;;;;;;;;;;5037740;28;20041;-61
2022/08/28 12:32:10;;;;;;;4.80;1.35;;;;;;;;;;5035886;28;20112;-60
2022/08/28 12:34:44;;;;;;;5.78;1.00;;;;;;;;;;5028069;28;20045;-60
2022/08/28 12:37:29;;;;;;;3.13;0.88;;;;;;;;;;5040134;28;20060;-60
2022/08/28 12:39:57;;;;;;;12.88;1.52;;;;;;;;;;5037754;28;20123;-60
2022/08/28 12:42:26;;;;;;;5.20;1.23;;;;;;;;;;5040789;28;20395;-61
2022/08/28 12:44:52;;;;;;;4.05;1.02;;;;;;;;;;5034199;28;20045;-60
2022/08/28 12:47:22;;;;;;;3.65;1.00;;;;;;;;;;5030867;28;20059;-59
2022/08/28 12:49:48;;;;;;;7.90;0.88;;;;;;;;;;5033087;28;21469;-60
2022/08/28 12:52:17;;;;;;;10.68;1.48;;;;;;;;;;5026693;28;20041;-60
2022/08/28 12:54:46;;;;;;;7.55;0.98;;;;;;;;;;5032837;28;20045;-60
2022/08/28 12:57:12;;;;;;;;;;;;;;;;;;5024768;28;20128;-60
2022/08/28 12:59:40;;;;;;;7.85;0.95;;;;;;;;;;5026907;28;19935;-59
2022/08/28 13:02:06;;;;;;;;;;;;;;;;;;5033045;28;20041;-62
2022/08/28 13:04:34;;;;;;;5.35;0.93;;;;;;;;;;5032351;28;19994;-60
2022/08/28 13:07:03;;;;;;;4.72;1.00;;;;;;;;;;5016974;28;20313;-62
2022/08/28 13:09:29;;;;;;;2.42;1.00;;;;;;;;;;5030106;28;20048;-61
2022/08/28 13:11:55;;;;;;;7.47;1.30;;;;;;;;;;5033502;28;20159;-61
2022/08/28 13:14:38;;;;;;;2.83;0.93;;;;;;;;;;5032817;28;20060;-61
2022/08/28 13:17:04;;;;;;;11.00;1.10;;;;;;;;;;5038569;28;20136;-61
2022/08/28 13:19:31;;;;;;;4.55;1.02;;;;;;;;;;5038004;28;20045;-61
2022/08/28 13:22:00;;;;;;;8.73;0.95;;;;;;;;;;5042463;28;20041;-62
2022/08/28 13:24:26;;;;;;;3.90;0.85;;;;;;;;;;5036584;28;20717;-60
2022/08/28 13:27:02;;;;;;;6.25;0.90;;;;;;;;;;5036533;28;20220;-61
2022/08/28 13:29:28;;;;;;;2.95;0.80;;;;;;;;;;5036859;28;20589;-61
2022/08/28 13:32:00;;;;;;;5.75;0.98;;;;;;;;;;5037284;28;20060;-62
2022/08/28 13:34:28;;;;;;;5.43;0.63;;;;;;;;;;5037008;28;20063;-62
2022/08/28 13:36:58;;;;;;;5.13;1.38;;;;;;;;;;5034803;28;20129;-63
2022/08/28 13:39:25;;;;;;;3.47;0.75;;;;;;;;;;5038621;28;20477;-62
2022/08/28 13:41:53;;;;;;;6.30;0.90;;;;;;;;;;5036801;28;20585;-62
2022/08/28 13:44:24;;;;;;;2.88;0.98;;;;;;;;;;5035216;28;20049;-61
2022/08/28 13:46:50;;;;;;;4.38;1.25;;;;;;;;;;5032874;28;20538;-61
2022/08/28 13:49:16;;;;;;;3.80;0.80;;;;;;;;;;5037033;28;20045;-61
2022/08/28 13:51:43;;;;;;;4.95;0.88;;;;;;;;;;5035390;28;20322;-62
2022/08/28 13:54:09;;;;;;;2.75;0.60;;;;;;;;;;5036969;28;20379;-62
2022/08/28 13:56:35;;;;;;;6.60;0.75;;;;;;;;;;5037165;28;20045;-62
2022/08/28 13:59:01;;;;;;;6.85;1.10;;;;;;;;;;5037534;28;20048;-61
2022/08/28 14:03:34;;;;;;;8.27;1.10;;;;;;;;;;5035311;28;20053;-62
2022/08/28 14:04:14;;;;;;;3.70;0.50;;;;;;;;;;5035319;28;20057;-61
2022/08/28 14:06:42;;;;;;;7.10;0.80;;;;;;;;;;5034893;28;20041;-61
2022/08/28 14:09:13;;;;;;;2.72;0.50;;;;;;;;;;5038169;28;20079;-63
2022/08/28 14:11:42;;;;;;;5.95;0.63;;;;;;;;;;5036818;28;20052;-60
2022/08/28 14:14:09;;;;;;;6.50;0.70;;;;;;;;;;5038701;28;20049;-60
2022/08/28 14:16:35;;;;;;;4.85;0.55;;;;;;;;;;5037959;28;20052;-62
2022/08/28 14:19:04;;;;;;;2.53;0.60;;;;;;;;;;5032873;28;20106;-60
2022/08/28 14:21:35;;;;;;;7.22;0.55;;;;;;;;;;5035393;28;20120;-61
2022/08/28 14:24:01;;;;;;;5.55;0.70;;;;;;;;;;5036532;28;20186;-60
2022/08/28 14:26:29;;;;;;;6.10;0.80;;;;;;;;;;5038225;28;20044;-61
2022/08/28 14:28:58;;;;;;;3.67;0.77;;;;;;;;;;5023548;28;20142;-61
2022/08/28 14:31:24;;;;;;;2.35;0.55;;;;;;;;;;5037864;28;20053;-62
2022/08/28 14:33:50;;;;;;;5.15;0.60;;;;;;;;;;5035165;28;20225;-62
2022/08/28 14:36:19;;;;;;;2.75;0.70;;;;;;;;;;5034029;28;20048;-61
2022/08/28 14:38:46;;;;;;;4.18;0.65;;;;;;;;;;5035306;28;20041;-60
2022/08/28 14:41:13;;;;;;;6.60;0.85;;;;;;;;;;5037309;28;20040;-61
2022/08/28 14:43:40;;;;;;;4.13;0.50;;;;;;;;;;5037472;28;20037;-62
2022/08/28 14:46:07;;;;;;;5.47;0.43;;;;;;;;;;5037602;28;20165;-61
2022/08/28 14:48:33;;;;;;;5.70;0.60;;;;;;;;;;5037313;28;20114;-62
2022/08/28 14:51:03;;;;;;;4.32;0.60;;;;;;;;;;5027609;28;20146;-60
2022/08/28 14:53:29;;;;;;;5.22;0.80;;;;;;;;;;5041545;28;20080;-60
2022/08/28 14:55:55;;;;;;;5.72;0.60;;;;;;;;;;5041877;28;20102;-62
2022/08/28 14:58:21;;;;;;;7.28;0.73;;;;;;;;;;5037421;28;20040;-61
2022/08/28 15:00:49;;;;;;;3.60;0.60;;;;;;;;;;5034228;28;20503;-61
2022/08/28 15:03:15;;;;;;;2.55;0.65;;;;;;;;;;5031124;28;20260;-61
2022/08/28 15:05:41;;;;;;;2.40;0.65;;;;;;;;;;5032206;28;20114;-61
2022/08/28 15:08:08;;;;;;;5.70;0.63;;;;;;;;;;5031877;28;20526;-60
2022/08/28 15:10:37;;;;;;;4.35;0.70;;;;;;;;;;5034083;28;20058;-61